sensor_id;sensor_type;location;lat;lon;timestamp;temperature;humidity
26703;DHT22;14316;51.074;3.704;2022-12-29T00:02:13;10.90;99.90
26703;DHT22;14316;51.074;3.704;2022-12-29T00:04:39;11.00;99.90
26703;DHT22;14316;51.074;3.704;2022-12-29T00:07:05;11.10;99.90
26703;DHT22;14316;51.074;3.704;2022-12-29T00:09:33;11.10;99.90
26703;DHT22;14316;51.074;3.704;2022-12-29T00:11:59;11.20;99.90
26703;DHT22;14316;51.074;3.704;2022-12-29T00:14:25;11.30;99.90
26703;DHT22;14316;51.074;3.704;2022-12-29T00:17:09;11.30;99.90
26703;DHT22;14316;51.074;3.704;2022-12-29T00:19:35;11.30;99.90
26703;DHT22;14316;51.074;3.704;2022-12-29T00:22:20;11.40;99.90
26703;DHT22;14316;51.074;3.704;2022-12-29T00:25:05;11.40;99.90
26703;DHT22;14316;51.074;3.704;2022-12-29T00:27:32;11.50;99.90
26703;DHT22;14316;51.074;3.704;2022-12-29T00:30:22;11.70;99.90
26703;DHT22;14316;51.074;3.704;2022-12-29T00:33:17;11.70;99.90
26703;DHT22;14316;51.074;3.704;2022-12-29T00:36:21;11.80;99.90
26703;DHT22;14316;51.074;3.704;2022-12-29T00:39:02;11.80;99.90
26703;DHT22;14316;51.074;3.704;2022-12-29T00:41:48;11.80;99.90
26703;DHT22;14316;51.074;3.704;2022-12-29T00:44:32;11.70;99.90
26703;DHT22;14316;51.074;3.704;2022-12-29T00:46:58;11.70;99.90
26703;DHT22;14316;51.074;3.704;2022-12-29T00:49:28;11.70;99.90
26703;DHT22;14316;51.074;3.704;2022-12-29T00:52:03;11.70;99.90
26703;DHT22;14316;51.074;3.704;2022-12-29T00:54:32;11.80;99.90
26703;DHT22;14316;51.074;3.704;2022-12-29T00:56:59;11.80;99.90
26703;DHT22;14316;51.074;3.704;2022-12-29T00:59:25;11.80;99.90
26703;DHT22;14316;51.074;3.704;2022-12-29T01:01:52;11.80;99.90
26703;DHT22;14316;51.074;3.704;2022-12-29T01:04:20;11.90;99.90
26703;DHT22;14316;51.074;3.704;2022-12-29T01:06:46;11.90;99.90
26703;DHT22;14316;51.074;3.704;2022-12-29T01:09:12;11.90;99.90
26703;DHT22;14316;51.074;3.704;2022-12-29T01:11:57;11.90;99.90
26703;DHT22;14316;51.074;3.704;2022-12-29T01:14:24;11.90;99.90
26703;DHT22;14316;51.074;3.704;2022-12-29T01:16:51;11.90;99.90
26703;DHT22;14316;51.074;3.704;2022-12-29T01:19:17;11.80;99.90
26703;DHT22;14316;51.074;3.704;2022-12-29T01:21:44;11.80;99.90
26703;DHT22;14316;51.074;3.704;2022-12-29T01:24:09;11.80;99.90
26703;DHT22;14316;51.074;3.704;2022-12-29T01:26:36;11.80;99.90
26703;DHT22;14316;51.074;3.704;2022-12-29T01:29:02;11.80;99.90
26703;DHT22;14316;51.074;3.704;2022-12-29T01:31:28;11.80;99.90
26703;DHT22;14316;51.074;3.704;2022-12-29T01:33:54;11.80;99.90
26703;DHT22;14316;51.074;3.704;2022-12-29T01:36:20;11.80;99.90
26703;DHT22;14316;51.074;3.704;2022-12-29T01:38:47;11.80;99.90
26703;DHT22;14316;51.074;3.704;2022-12-29T01:41:15;11.70;99.90
26703;DHT22;14316;51.074;3.704;2022-12-29T01:46:31;11.70;99.90
26703;DHT22;14316;51.074;3.704;2022-12-29T01:51:46;11.60;99.90
26703;DHT22;14316;51.074;3.704;2022-12-29T01:54:18;11.60;99.90
26703;DHT22;14316;51.074;3.704;2022-12-29T01:56:46;11.50;99.90
26703;DHT22;14316;51.074;3.704;2022-12-29T01:59:17;11.50;99.90
26703;DHT22;14316;51.074;3.704;2022-12-29T02:01:44;11.50;99.90
26703;DHT22;14316;51.074;3.704;2022-12-29T02:04:12;11.50;99.90
26703;DHT22;14316;51.074;3.704;2022-12-29T02:06:46;11.50;99.90
26703;DHT22;14316;51.074;3.704;2022-12-29T02:09:14;11.50;99.90
26703;DHT22;14316;51.074;3.704;2022-12-29T02:11:40;11.50;99.90
26703;DHT22;14316;51.074;3.704;2022-12-29T02:14:13;11.40;99.90
26703;DHT22;14316;51.074;3.704;2022-12-29T02:22:29;11.40;99.90
26703;DHT22;14316;51.074;3.704;2022-12-29T02:28:06;11.30;99.90
26703;DHT22;14316;51.074;3.704;2022-12-29T02:33:30;11.20;99.90
26703;DHT22;14316;51.074;3.704;2022-12-29T02:36:28;11.30;99.90
26703;DHT22;14316;51.074;3.704;2022-12-29T02:39:23;11.30;99.90
26703;DHT22;14316;51.074;3.704;2022-12-29T02:42:00;11.30;99.90
26703;DHT22;14316;51.074;3.704;2022-12-29T02:44:39;11.30;99.90
26703;DHT22;14316;51.074;3.704;2022-12-29T02:50:03;11.30;99.90
26703;DHT22;14316;51.074;3.704;2022-12-29T02:52:36;11.30;99.90
26703;DHT22;14316;51.074;3.704;2022-12-29T02:55:05;11.30;99.90
26703;DHT22;14316;51.074;3.704;2022-12-29T02:57:34;11.30;99.90
26703;DHT22;14316;51.074;3.704;2022-12-29T03:00:14;11.30;99.90
26703;DHT22;14316;51.074;3.704;2022-12-29T03:08:28;11.30;99.90
26703;DHT22;14316;51.074;3.704;2022-12-29T03:13:47;11.20;99.90
26703;DHT22;14316;51.074;3.704;2022-12-29T03:19:25;11.20;99.90
26703;DHT22;14316;51.074;3.704;2022-12-29T03:22:07;11.20;99.90
26703;DHT22;14316;51.074;3.704;2022-12-29T03:24:58;11.20;99.90
26703;DHT22;14316;51.074;3.704;2022-12-29T03:27:44;11.20;99.90
26703;DHT22;14316;51.074;3.704;2022-12-29T03:30:12;11.10;99.90
26703;DHT22;14316;51.074;3.704;2022-12-29T03:32:42;11.10;99.90
26703;DHT22;14316;51.074;3.704;2022-12-29T03:35:10;11.10;99.90
26703;DHT22;14316;51.074;3.704;2022-12-29T03:37:43;11.10;99.90
26703;DHT22;14316;51.074;3.704;2022-12-29T03:40:10;11.10;99.90
26703;DHT22;14316;51.074;3.704;2022-12-29T03:42:37;11.10;99.90
26703;DHT22;14316;51.074;3.704;2022-12-29T03:45:04;11.00;99.90
26703;DHT22;14316;51.074;3.704;2022-12-29T03:47:32;11.00;99.90
26703;DHT22;14316;51.074;3.704;2022-12-29T03:49:58;11.00;99.90
26703;DHT22;14316;51.074;3.704;2022-12-29T03:52:24;11.00;99.90
26703;DHT22;14316;51.074;3.704;2022-12-29T03:54:50;11.00;99.90
26703;DHT22;14316;51.074;3.704;2022-12-29T03:57:16;11.10;99.90
26703;DHT22;14316;51.074;3.704;2022-12-29T03:59:42;11.00;99.90
26703;DHT22;14316;51.074;3.704;2022-12-29T04:02:08;11.00;99.90
26703;DHT22;14316;51.074;3.704;2022-12-29T04:04:34;11.00;99.90
26703;DHT22;14316;51.074;3.704;2022-12-29T04:07:00;11.00;99.90
26703;DHT22;14316;51.074;3.704;2022-12-29T04:09:26;11.00;99.90
26703;DHT22;14316;51.074;3.704;2022-12-29T04:11:52;11.00;99.90
26703;DHT22;14316;51.074;3.704;2022-12-29T04:14:18;11.00;99.90
26703;DHT22;14316;51.074;3.704;2022-12-29T04:16:44;10.90;99.90
26703;DHT22;14316;51.074;3.704;2022-12-29T04:19:10;10.90;99.90
26703;DHT22;14316;51.074;3.704;2022-12-29T04:21:36;10.90;99.90
26703;DHT22;14316;51.074;3.704;2022-12-29T04:24:02;10.90;99.90
26703;DHT22;14316;51.074;3.704;2022-12-29T04:26:28;10.80;99.90
26703;DHT22;14316;51.074;3.704;2022-12-29T04:28:54;10.80;99.90
26703;DHT22;14316;51.074;3.704;2022-12-29T04:31:20;10.80;99.90
26703;DHT22;14316;51.074;3.704;2022-12-29T04:33:46;10.70;99.90
26703;DHT22;14316;51.074;3.704;2022-12-29T04:36:12;10.60;99.90
26703;DHT22;14316;51.074;3.704;2022-12-29T04:38:38;10.60;99.90
26703;DHT22;14316;51.074;3.704;2022-12-29T04:41:04;10.60;99.90
26703;DHT22;14316;51.074;3.704;2022-12-29T04:43:30;10.60;99.90
26703;DHT22;14316;51.074;3.704;2022-12-29T04:45:56;10.70;99.90
26703;DHT22;14316;51.074;3.704;2022-12-29T04:48:22;10.60;99.90
26703;DHT22;14316;51.074;3.704;2022-12-29T04:50:49;10.70;99.90
26703;DHT22;14316;51.074;3.704;2022-12-29T04:53:15;10.70;99.90
26703;DHT22;14316;51.074;3.704;2022-12-29T04:55:42;10.70;99.90
26703;DHT22;14316;51.074;3.704;2022-12-29T04:58:08;10.70;99.90
26703;DHT22;14316;51.074;3.704;2022-12-29T05:00:34;10.70;99.90
26703;DHT22;14316;51.074;3.704;2022-12-29T05:03:00;10.70;99.90
26703;DHT22;14316;51.074;3.704;2022-12-29T05:05:26;10.70;99.90
26703;DHT22;14316;51.074;3.704;2022-12-29T05:07:52;10.70;99.90
26703;DHT22;14316;51.074;3.704;2022-12-29T05:10:18;10.60;99.90
26703;DHT22;14316;51.074;3.704;2022-12-29T05:12:44;10.60;99.90
26703;DHT22;14316;51.074;3.704;2022-12-29T05:15:10;10.60;99.90
26703;DHT22;14316;51.074;3.704;2022-12-29T05:17:37;10.60;99.90
26703;DHT22;14316;51.074;3.704;2022-12-29T05:20:04;10.60;99.90
26703;DHT22;14316;51.074;3.704;2022-12-29T05:22:30;10.50;99.90
26703;DHT22;14316;51.074;3.704;2022-12-29T05:24:56;10.50;99.90
26703;DHT22;14316;51.074;3.704;2022-12-29T05:27:22;10.50;99.90
26703;DHT22;14316;51.074;3.704;2022-12-29T05:29:48;10.50;99.90
26703;DHT22;14316;51.074;3.704;2022-12-29T05:32:14;10.40;99.90
26703;DHT22;14316;51.074;3.704;2022-12-29T05:34:40;10.40;99.90
26703;DHT22;14316;51.074;3.704;2022-12-29T05:37:06;10.40;99.90
26703;DHT22;14316;51.074;3.704;2022-12-29T05:39:33;10.50;99.90
26703;DHT22;14316;51.074;3.704;2022-12-29T05:41:58;10.50;99.90
26703;DHT22;14316;51.074;3.704;2022-12-29T05:44:24;10.50;99.90
26703;DHT22;14316;51.074;3.704;2022-12-29T05:46:50;10.50;99.90
26703;DHT22;14316;51.074;3.704;2022-12-29T05:49:17;10.50;99.90
26703;DHT22;14316;51.074;3.704;2022-12-29T05:51:43;10.60;99.90
26703;DHT22;14316;51.074;3.704;2022-12-29T05:54:09;10.60;99.90
26703;DHT22;14316;51.074;3.704;2022-12-29T05:56:35;10.60;99.90
26703;DHT22;14316;51.074;3.704;2022-12-29T05:59:01;10.60;99.90
26703;DHT22;14316;51.074;3.704;2022-12-29T06:01:26;10.60;99.90
26703;DHT22;14316;51.074;3.704;2022-12-29T06:03:53;10.60;99.90
26703;DHT22;14316;51.074;3.704;2022-12-29T06:06:20;10.70;99.90
26703;DHT22;14316;51.074;3.704;2022-12-29T06:08:45;10.70;99.90
26703;DHT22;14316;51.074;3.704;2022-12-29T06:11:11;10.70;99.90
26703;DHT22;14316;51.074;3.704;2022-12-29T06:13:37;10.70;99.90
26703;DHT22;14316;51.074;3.704;2022-12-29T06:16:04;10.70;99.90
26703;DHT22;14316;51.074;3.704;2022-12-29T06:18:30;10.80;99.90
26703;DHT22;14316;51.074;3.704;2022-12-29T06:21:04;10.80;99.90
26703;DHT22;14316;51.074;3.704;2022-12-29T06:23:30;10.80;99.90
26703;DHT22;14316;51.074;3.704;2022-12-29T06:25:56;10.80;99.90
26703;DHT22;14316;51.074;3.704;2022-12-29T06:28:23;10.70;99.90
26703;DHT22;14316;51.074;3.704;2022-12-29T06:30:49;10.60;99.90
26703;DHT22;14316;51.074;3.704;2022-12-29T06:33:15;10.60;99.90
26703;DHT22;14316;51.074;3.704;2022-12-29T06:35:42;10.60;99.90
26703;DHT22;14316;51.074;3.704;2022-12-29T06:38:08;10.40;99.90
26703;DHT22;14316;51.074;3.704;2022-12-29T06:40:35;10.20;99.90
26703;DHT22;14316;51.074;3.704;2022-12-29T06:43:01;9.70;99.90
26703;DHT22;14316;51.074;3.704;2022-12-29T06:45:27;9.40;99.90
26703;DHT22;14316;51.074;3.704;2022-12-29T06:47:53;9.30;99.90
26703;DHT22;14316;51.074;3.704;2022-12-29T06:50:18;9.20;99.90
26703;DHT22;14316;51.074;3.704;2022-12-29T06:52:45;9.10;99.90
26703;DHT22;14316;51.074;3.704;2022-12-29T06:55:11;9.10;99.90
26703;DHT22;14316;51.074;3.704;2022-12-29T06:57:37;9.10;99.90
26703;DHT22;14316;51.074;3.704;2022-12-29T07:00:04;9.10;99.90
26703;DHT22;14316;51.074;3.704;2022-12-29T07:02:30;9.20;99.90
26703;DHT22;14316;51.074;3.704;2022-12-29T07:04:56;9.40;99.90
26703;DHT22;14316;51.074;3.704;2022-12-29T07:07:22;9.40;99.90
26703;DHT22;14316;51.074;3.704;2022-12-29T07:09:48;9.70;99.90
26703;DHT22;14316;51.074;3.704;2022-12-29T07:12:14;9.80;99.90
26703;DHT22;14316;51.074;3.704;2022-12-29T07:14:40;9.90;99.90
26703;DHT22;14316;51.074;3.704;2022-12-29T07:17:06;9.90;99.90
26703;DHT22;14316;51.074;3.704;2022-12-29T07:19:33;9.90;99.90
26703;DHT22;14316;51.074;3.704;2022-12-29T07:21:59;10.00;99.90
26703;DHT22;14316;51.074;3.704;2022-12-29T07:24:25;10.00;99.90
26703;DHT22;14316;51.074;3.704;2022-12-29T07:26:52;9.90;99.90
26703;DHT22;14316;51.074;3.704;2022-12-29T07:29:18;10.00;99.90
26703;DHT22;14316;51.074;3.704;2022-12-29T07:31:44;10.10;99.90
26703;DHT22;14316;51.074;3.704;2022-12-29T07:34:10;10.10;99.90
26703;DHT22;14316;51.074;3.704;2022-12-29T07:36:36;10.00;99.90
26703;DHT22;14316;51.074;3.704;2022-12-29T07:39:02;10.10;99.90
26703;DHT22;14316;51.074;3.704;2022-12-29T07:41:29;10.10;99.90
26703;DHT22;14316;51.074;3.704;2022-12-29T07:43:55;10.10;99.90
26703;DHT22;14316;51.074;3.704;2022-12-29T07:46:21;10.10;99.90
26703;DHT22;14316;51.074;3.704;2022-12-29T07:48:47;10.10;99.90
26703;DHT22;14316;51.074;3.704;2022-12-29T07:51:13;10.20;99.90
26703;DHT22;14316;51.074;3.704;2022-12-29T07:53:39;10.20;99.90
26703;DHT22;14316;51.074;3.704;2022-12-29T07:56:05;10.10;99.90
26703;DHT22;14316;51.074;3.704;2022-12-29T07:58:31;10.00;99.90
26703;DHT22;14316;51.074;3.704;2022-12-29T08:00:57;9.70;99.90
26703;DHT22;14316;51.074;3.704;2022-12-29T08:03:23;9.60;99.90
26703;DHT22;14316;51.074;3.704;2022-12-29T08:05:51;9.60;99.90
26703;DHT22;14316;51.074;3.704;2022-12-29T08:08:17;9.50;99.90
26703;DHT22;14316;51.074;3.704;2022-12-29T08:10:43;9.50;99.90
26703;DHT22;14316;51.074;3.704;2022-12-29T08:13:09;9.40;99.90
26703;DHT22;14316;51.074;3.704;2022-12-29T08:15:37;9.40;99.90
26703;DHT22;14316;51.074;3.704;2022-12-29T08:18:03;9.30;99.90
26703;DHT22;14316;51.074;3.704;2022-12-29T08:20:28;9.20;99.90
26703;DHT22;14316;51.074;3.704;2022-12-29T08:22:54;9.20;99.90
26703;DHT22;14316;51.074;3.704;2022-12-29T08:25:20;9.30;99.90
26703;DHT22;14316;51.074;3.704;2022-12-29T08:27:46;9.40;99.90
26703;DHT22;14316;51.074;3.704;2022-12-29T08:30:12;9.30;99.90
26703;DHT22;14316;51.074;3.704;2022-12-29T08:32:41;9.20;99.90
26703;DHT22;14316;51.074;3.704;2022-12-29T08:35:07;9.20;99.90
26703;DHT22;14316;51.074;3.704;2022-12-29T08:37:34;9.10;99.90
26703;DHT22;14316;51.074;3.704;2022-12-29T08:40:00;9.20;99.90
26703;DHT22;14316;51.074;3.704;2022-12-29T08:42:30;9.30;99.90
26703;DHT22;14316;51.074;3.704;2022-12-29T08:44:57;9.20;99.90
26703;DHT22;14316;51.074;3.704;2022-12-29T08:47:24;9.20;99.90
26703;DHT22;14316;51.074;3.704;2022-12-29T08:49:50;9.20;99.90
26703;DHT22;14316;51.074;3.704;2022-12-29T08:52:16;9.10;99.90
26703;DHT22;14316;51.074;3.704;2022-12-29T08:54:41;9.10;99.90
26703;DHT22;14316;51.074;3.704;2022-12-29T08:57:07;9.00;99.90
26703;DHT22;14316;51.074;3.704;2022-12-29T08:59:34;8.90;99.90
26703;DHT22;14316;51.074;3.704;2022-12-29T09:02:00;8.80;99.90
26703;DHT22;14316;51.074;3.704;2022-12-29T09:04:27;8.90;99.90
26703;DHT22;14316;51.074;3.704;2022-12-29T09:06:53;9.00;99.90
26703;DHT22;14316;51.074;3.704;2022-12-29T09:09:20;9.00;99.90
26703;DHT22;14316;51.074;3.704;2022-12-29T09:11:45;9.00;99.90
26703;DHT22;14316;51.074;3.704;2022-12-29T09:14:11;9.00;99.90
26703;DHT22;14316;51.074;3.704;2022-12-29T09:16:38;9.10;99.90
26703;DHT22;14316;51.074;3.704;2022-12-29T09:19:04;9.00;99.90
26703;DHT22;14316;51.074;3.704;2022-12-29T09:21:31;9.10;99.90
26703;DHT22;14316;51.074;3.704;2022-12-29T09:23:57;9.20;99.90
26703;DHT22;14316;51.074;3.704;2022-12-29T09:26:22;9.20;99.90
26703;DHT22;14316;51.074;3.704;2022-12-29T09:28:48;9.20;99.90
26703;DHT22;14316;51.074;3.704;2022-12-29T09:31:15;9.20;99.90
26703;DHT22;14316;51.074;3.704;2022-12-29T09:33:40;9.20;99.90
26703;DHT22;14316;51.074;3.704;2022-12-29T09:36:08;9.10;99.90
26703;DHT22;14316;51.074;3.704;2022-12-29T09:38:34;9.20;99.90
26703;DHT22;14316;51.074;3.704;2022-12-29T09:41:07;9.20;99.90
26703;DHT22;14316;51.074;3.704;2022-12-29T09:46:18;9.30;99.90
26703;DHT22;14316;51.074;3.704;2022-12-29T09:49:14;9.30;99.90
26703;DHT22;14316;51.074;3.704;2022-12-29T09:51:38;9.40;99.90
26703;DHT22;14316;51.074;3.704;2022-12-29T09:56:57;9.00;99.90
26703;DHT22;14316;51.074;3.704;2022-12-29T09:59:38;9.00;99.90
26703;DHT22;14316;51.074;3.704;2022-12-29T10:04:46;8.90;99.90
26703;DHT22;14316;51.074;3.704;2022-12-29T10:10:59;9.00;99.90
26703;DHT22;14316;51.074;3.704;2022-12-29T10:13:28;9.00;99.90
26703;DHT22;14316;51.074;3.704;2022-12-29T10:24:39;9.20;99.90
26703;DHT22;14316;51.074;3.704;2022-12-29T10:27:13;9.20;99.90
26703;DHT22;14316;51.074;3.704;2022-12-29T10:29:52;9.30;99.90
26703;DHT22;14316;51.074;3.704;2022-12-29T10:32:27;9.40;99.90
26703;DHT22;14316;51.074;3.704;2022-12-29T10:35:16;9.50;99.90
26703;DHT22;14316;51.074;3.704;2022-12-29T10:38:47;9.60;99.90
26703;DHT22;14316;51.074;3.704;2022-12-29T10:41:02;9.70;99.90
26703;DHT22;14316;51.074;3.704;2022-12-29T10:43:37;9.80;99.90
26703;DHT22;14316;51.074;3.704;2022-12-29T10:46:11;9.80;99.90
26703;DHT22;14316;51.074;3.704;2022-12-29T10:48:38;9.90;99.90
26703;DHT22;14316;51.074;3.704;2022-12-29T10:51:05;9.90;99.90
26703;DHT22;14316;51.074;3.704;2022-12-29T10:53:48;9.90;99.90
26703;DHT22;14316;51.074;3.704;2022-12-29T10:59:26;10.00;99.90
26703;DHT22;14316;51.074;3.704;2022-12-29T11:05:00;10.00;99.90
26703;DHT22;14316;51.074;3.704;2022-12-29T11:07:31;10.00;99.90
26703;DHT22;14316;51.074;3.704;2022-12-29T11:13:04;10.00;99.90
26703;DHT22;14316;51.074;3.704;2022-12-29T11:15:44;10.00;99.90
26703;DHT22;14316;51.074;3.704;2022-12-29T11:18:31;10.10;99.90
26703;DHT22;14316;51.074;3.704;2022-12-29T11:21:00;10.10;99.90
26703;DHT22;14316;51.074;3.704;2022-12-29T11:23:36;10.10;99.90
26703;DHT22;14316;51.074;3.704;2022-12-29T11:26:20;10.20;99.90
26703;DHT22;14316;51.074;3.704;2022-12-29T11:31:41;10.20;99.90
26703;DHT22;14316;51.074;3.704;2022-12-29T11:34:07;10.20;99.90
26703;DHT22;14316;51.074;3.704;2022-12-29T11:36:34;10.10;99.90
26703;DHT22;14316;51.074;3.704;2022-12-29T11:39:01;10.10;99.90
26703;DHT22;14316;51.074;3.704;2022-12-29T11:41:29;10.10;99.90
26703;DHT22;14316;51.074;3.704;2022-12-29T11:43:59;10.00;99.90
26703;DHT22;14316;51.074;3.704;2022-12-29T11:46:29;9.60;99.90
26703;DHT22;14316;51.074;3.704;2022-12-29T11:48:56;9.40;99.90
26703;DHT22;14316;51.074;3.704;2022-12-29T11:54:02;9.10;99.90
26703;DHT22;14316;51.074;3.704;2022-12-29T11:56:36;9.10;99.90
26703;DHT22;14316;51.074;3.704;2022-12-29T11:59:25;9.10;99.90
26703;DHT22;14316;51.074;3.704;2022-12-29T12:02:03;9.00;99.90
26703;DHT22;14316;51.074;3.704;2022-12-29T12:04:37;9.00;99.90
26703;DHT22;14316;51.074;3.704;2022-12-29T12:07:20;9.00;99.90
26703;DHT22;14316;51.074;3.704;2022-12-29T12:09:53;9.00;99.90
26703;DHT22;14316;51.074;3.704;2022-12-29T12:15:18;9.00;99.90
26703;DHT22;14316;51.074;3.704;2022-12-29T12:20:33;9.10;99.90
26703;DHT22;14316;51.074;3.704;2022-12-29T12:26:12;9.10;99.90
26703;DHT22;14316;51.074;3.704;2022-12-29T12:29:32;9.20;99.90
26703;DHT22;14316;51.074;3.704;2022-12-29T12:31:51;9.30;99.90
26703;DHT22;14316;51.074;3.704;2022-12-29T12:34:24;9.40;99.90
26703;DHT22;14316;51.074;3.704;2022-12-29T12:51:19;9.60;99.90
26703;DHT22;14316;51.074;3.704;2022-12-29T12:59:31;9.60;99.90
26703;DHT22;14316;51.074;3.704;2022-12-29T13:02:15;9.60;99.90
26703;DHT22;14316;51.074;3.704;2022-12-29T13:07:42;9.40;99.90
26703;DHT22;14316;51.074;3.704;2022-12-29T13:30:15;9.10;99.90
26703;DHT22;14316;51.074;3.704;2022-12-29T13:35:49;8.70;99.90
26703;DHT22;14316;51.074;3.704;2022-12-29T13:38:29;8.60;99.90
26703;DHT22;14316;51.074;3.704;2022-12-29T13:41:11;8.40;99.90
26703;DHT22;14316;51.074;3.704;2022-12-29T13:43:40;8.40;99.90
26703;DHT22;14316;51.074;3.704;2022-12-29T13:46:14;8.40;99.90
26703;DHT22;14316;51.074;3.704;2022-12-29T13:49:04;8.50;99.90
26703;DHT22;14316;51.074;3.704;2022-12-29T13:51:32;8.50;99.90
26703;DHT22;14316;51.074;3.704;2022-12-29T14:00:03;8.60;99.90
26703;DHT22;14316;51.074;3.704;2022-12-29T14:08:00;8.70;99.90
26703;DHT22;14316;51.074;3.704;2022-12-29T14:10:35;8.70;99.90
26703;DHT22;14316;51.074;3.704;2022-12-29T14:13:13;8.70;99.90
26703;DHT22;14316;51.074;3.704;2022-12-29T14:15:42;8.60;99.90
26703;DHT22;14316;51.074;3.704;2022-12-29T14:18:18;8.60;99.90
26703;DHT22;14316;51.074;3.704;2022-12-29T14:23:45;8.50;99.90
26703;DHT22;14316;51.074;3.704;2022-12-29T14:26:14;8.50;99.90
26703;DHT22;14316;51.074;3.704;2022-12-29T14:28:45;8.50;99.90
26703;DHT22;14316;51.074;3.704;2022-12-29T14:34:14;8.60;99.90
26703;DHT22;14316;51.074;3.704;2022-12-29T14:36:34;8.70;99.90
26703;DHT22;14316;51.074;3.704;2022-12-29T14:39:01;8.80;99.90
26703;DHT22;14316;51.074;3.704;2022-12-29T14:41:33;8.80;99.90
26703;DHT22;14316;51.074;3.704;2022-12-29T14:46:55;8.70;99.90
26703;DHT22;14316;51.074;3.704;2022-12-29T14:49:29;8.80;99.90
26703;DHT22;14316;51.074;3.704;2022-12-29T14:52:20;8.70;99.90
26703;DHT22;14316;51.074;3.704;2022-12-29T14:57:44;8.70;99.90
26703;DHT22;14316;51.074;3.704;2022-12-29T15:00:21;8.70;99.90
26703;DHT22;14316;51.074;3.704;2022-12-29T15:03:04;8.70;99.90
26703;DHT22;14316;51.074;3.704;2022-12-29T15:05:53;8.70;99.90
26703;DHT22;14316;51.074;3.704;2022-12-29T15:08:23;8.70;99.90
26703;DHT22;14316;51.074;3.704;2022-12-29T15:11:06;8.70;99.90
26703;DHT22;14316;51.074;3.704;2022-12-29T15:13:40;8.70;99.90
26703;DHT22;14316;51.074;3.704;2022-12-29T15:19:21;8.80;99.90
26703;DHT22;14316;51.074;3.704;2022-12-29T15:21:47;8.80;99.90
26703;DHT22;14316;51.074;3.704;2022-12-29T15:24:13;8.70;99.90
26703;DHT22;14316;51.074;3.704;2022-12-29T15:26:43;8.80;99.90
26703;DHT22;14316;51.074;3.704;2022-12-29T15:29:30;8.70;99.90
26703;DHT22;14316;51.074;3.704;2022-12-29T15:31:59;8.70;99.90
26703;DHT22;14316;51.074;3.704;2022-12-29T15:34:29;8.60;99.90
26703;DHT22;14316;51.074;3.704;2022-12-29T15:36:56;8.50;99.90
26703;DHT22;14316;51.074;3.704;2022-12-29T15:39:30;8.50;99.90
26703;DHT22;14316;51.074;3.704;2022-12-29T15:42:05;8.40;99.90
26703;DHT22;14316;51.074;3.704;2022-12-29T15:44:39;8.40;99.90
26703;DHT22;14316;51.074;3.704;2022-12-29T15:47:21;8.40;99.90
26703;DHT22;14316;51.074;3.704;2022-12-29T15:49:52;8.40;99.90
26703;DHT22;14316;51.074;3.704;2022-12-29T15:52:20;8.40;99.90
26703;DHT22;14316;51.074;3.704;2022-12-29T15:54:49;8.30;99.90
26703;DHT22;14316;51.074;3.704;2022-12-29T15:57:25;8.30;99.90
26703;DHT22;14316;51.074;3.704;2022-12-29T15:59:52;8.30;99.90
26703;DHT22;14316;51.074;3.704;2022-12-29T16:02:23;8.20;99.90
26703;DHT22;14316;51.074;3.704;2022-12-29T16:04:50;8.20;99.90
26703;DHT22;14316;51.074;3.704;2022-12-29T16:07:31;8.20;99.90
26703;DHT22;14316;51.074;3.704;2022-12-29T16:10:00;8.10;99.90
26703;DHT22;14316;51.074;3.704;2022-12-29T16:12:36;8.20;99.90
26703;DHT22;14316;51.074;3.704;2022-12-29T16:15:07;8.10;99.90
26703;DHT22;14316;51.074;3.704;2022-12-29T16:17:50;8.10;99.90
26703;DHT22;14316;51.074;3.704;2022-12-29T16:20:23;8.00;99.90
26703;DHT22;14316;51.074;3.704;2022-12-29T16:22:53;8.00;99.90
26703;DHT22;14316;51.074;3.704;2022-12-29T16:25:32;8.00;99.90
26703;DHT22;14316;51.074;3.704;2022-12-29T16:28:01;8.00;99.90
26703;DHT22;14316;51.074;3.704;2022-12-29T16:30:36;8.00;99.90
26703;DHT22;14316;51.074;3.704;2022-12-29T16:33:04;8.00;99.90
26703;DHT22;14316;51.074;3.704;2022-12-29T16:35:44;8.00;99.90
26703;DHT22;14316;51.074;3.704;2022-12-29T16:40:50;7.90;99.90
26703;DHT22;14316;51.074;3.704;2022-12-29T16:43:31;7.90;99.90
26703;DHT22;14316;51.074;3.704;2022-12-29T16:48:46;8.00;99.90
26703;DHT22;14316;51.074;3.704;2022-12-29T16:51:21;7.90;99.90
26703;DHT22;14316;51.074;3.704;2022-12-29T16:53:51;7.90;99.90
26703;DHT22;14316;51.074;3.704;2022-12-29T16:56:24;7.90;99.90
26703;DHT22;14316;51.074;3.704;2022-12-29T16:59:02;7.90;99.90
26703;DHT22;14316;51.074;3.704;2022-12-29T17:01:29;7.90;99.90
26703;DHT22;14316;51.074;3.704;2022-12-29T17:03:59;8.00;99.90
26703;DHT22;14316;51.074;3.704;2022-12-29T17:06:26;7.90;99.90
26703;DHT22;14316;51.074;3.704;2022-12-29T17:08:52;7.90;99.90
26703;DHT22;14316;51.074;3.704;2022-12-29T17:11:28;7.90;99.90
26703;DHT22;14316;51.074;3.704;2022-12-29T17:16:55;8.00;99.90
26703;DHT22;14316;51.074;3.704;2022-12-29T17:19:29;8.00;99.90
26703;DHT22;14316;51.074;3.704;2022-12-29T17:21:55;8.10;99.90
26703;DHT22;14316;51.074;3.704;2022-12-29T17:24:21;8.10;99.90
26703;DHT22;14316;51.074;3.704;2022-12-29T17:26:53;8.10;99.90
26703;DHT22;14316;51.074;3.704;2022-12-29T17:29:33;8.10;99.90
26703;DHT22;14316;51.074;3.704;2022-12-29T17:32:03;8.10;99.90
26703;DHT22;14316;51.074;3.704;2022-12-29T17:34:29;8.10;99.90
26703;DHT22;14316;51.074;3.704;2022-12-29T17:36:56;8.10;99.90
26703;DHT22;14316;51.074;3.704;2022-12-29T17:39:24;8.10;99.90
26703;DHT22;14316;51.074;3.704;2022-12-29T17:41:50;8.10;99.90
26703;DHT22;14316;51.074;3.704;2022-12-29T17:44:17;8.20;99.90
26703;DHT22;14316;51.074;3.704;2022-12-29T17:46:45;8.20;99.90
26703;DHT22;14316;51.074;3.704;2022-12-29T17:49:12;8.20;99.90
26703;DHT22;14316;51.074;3.704;2022-12-29T17:51:40;8.30;99.90
26703;DHT22;14316;51.074;3.704;2022-12-29T17:54:29;8.30;99.90
26703;DHT22;14316;51.074;3.704;2022-12-29T17:56:54;8.30;99.90
26703;DHT22;14316;51.074;3.704;2022-12-29T17:59:20;8.30;99.90
26703;DHT22;14316;51.074;3.704;2022-12-29T18:01:47;8.30;99.90
26703;DHT22;14316;51.074;3.704;2022-12-29T18:04:18;8.30;99.90
26703;DHT22;14316;51.074;3.704;2022-12-29T18:06:45;8.20;99.90
26703;DHT22;14316;51.074;3.704;2022-12-29T18:09:12;8.30;99.90
26703;DHT22;14316;51.074;3.704;2022-12-29T18:11:39;8.20;99.90
26703;DHT22;14316;51.074;3.704;2022-12-29T18:14:12;8.30;99.90
26703;DHT22;14316;51.074;3.704;2022-12-29T18:16:38;8.30;99.90
26703;DHT22;14316;51.074;3.704;2022-12-29T18:19:04;8.20;99.90
26703;DHT22;14316;51.074;3.704;2022-12-29T18:21:30;8.20;99.90
26703;DHT22;14316;51.074;3.704;2022-12-29T18:23:56;8.30;99.90
26703;DHT22;14316;51.074;3.704;2022-12-29T18:26:24;8.30;99.90
26703;DHT22;14316;51.074;3.704;2022-12-29T18:28:51;8.30;99.90
26703;DHT22;14316;51.074;3.704;2022-12-29T18:33:49;8.30;99.90
26703;DHT22;14316;51.074;3.704;2022-12-29T18:36:17;8.20;99.90
26703;DHT22;14316;51.074;3.704;2022-12-29T18:38:44;8.20;99.90